createdAt,value
2018-03-03T00:01:06.306Z,51.42
2018-03-03T00:03:35.693Z,49.30
2018-03-03T00:06:05.149Z,49.17
2018-03-03T00:08:34.550Z,43.72
2018-03-03T00:11:03.963Z,52.88
2018-03-03T00:13:33.371Z,47.97
2018-03-03T00:16:02.823Z,48.17
2018-03-03T00:18:32.236Z,53.78
2018-03-03T00:21:01.628Z,46.97
2018-03-03T00:23:31.075Z,47.97
2018-03-03T00:26:01.240Z,51.92
2018-03-03T00:28:30.663Z,49.03
2018-03-03T00:31:00.097Z,51.33
2018-03-03T00:33:29.472Z,47.85
2018-03-03T00:35:58.906Z,45.00
2018-03-03T00:38:28.309Z,46.00
2018-03-03T00:40:57.724Z,51.33
2018-03-03T00:43:27.136Z,48.47
2018-03-03T00:45:56.571Z,50.80
2018-03-03T00:48:25.981Z,50.65
2018-03-03T00:50:55.434Z,44.42
2018-03-03T00:53:24.833Z,49.30
2018-03-03T00:55:54.646Z,48.10
2018-03-03T00:58:24.054Z,45.22
2018-03-03T01:00:53.443Z,47.20
2018-03-03T01:03:22.883Z,52.47
2018-03-03T01:05:52.301Z,48.47
2018-03-03T01:08:21.744Z,54.30
2018-03-03T01:10:51.168Z,46.03
2018-03-03T01:13:20.619Z,46.17
2018-03-03T01:15:50.132Z,49.67
2018-03-03T01:18:19.575Z,53.28
2018-03-03T01:20:49.007Z,54.42
2018-03-03T01:23:18.489Z,48.40
2018-03-03T01:25:47.868Z,48.90
2018-03-03T01:28:17.277Z,61.55
2018-03-03T01:30:46.699Z,52.53
2018-03-03T01:33:16.700Z,48.05
2018-03-03T01:35:46.104Z,52.05
2018-03-03T01:38:15.524Z,45.53
2018-03-03T01:40:44.924Z,54.15
2018-03-03T01:43:14.367Z,43.33
2018-03-03T01:45:43.756Z,47.65
2018-03-03T01:48:13.217Z,56.17
2018-03-03T01:50:42.606Z,54.10
2018-03-03T01:53:12.022Z,45.55
2018-03-03T01:55:41.491Z,53.03
2018-03-03T01:58:10.877Z,46.97
2018-03-03T02:00:40.305Z,47.10
2018-03-03T02:03:09.703Z,53.70
2018-03-03T02:05:39.114Z,47.85
2018-03-03T02:08:08.593Z,45.67
2018-03-03T02:10:37.984Z,47.88
2018-03-03T02:13:07.418Z,57.88
2018-03-03T02:15:36.878Z,44.97
2018-03-03T02:18:06.272Z,51.10
2018-03-03T02:20:35.687Z,45.33
2018-03-03T02:23:05.120Z,46.13
2018-03-03T02:25:34.554Z,48.50
2018-03-03T02:28:03.986Z,48.40
2018-03-03T02:30:33.418Z,43.38
2018-03-03T02:33:02.818Z,48.08
2018-03-03T02:35:32.238Z,51.47
2018-03-03T02:38:01.677Z,49.80
2018-03-03T02:40:31.821Z,47.62
2018-03-03T02:43:01.236Z,52.20
2018-03-03T02:45:30.669Z,46.17
2018-03-03T02:48:00.054Z,46.70
2018-03-03T02:50:29.491Z,56.30
2018-03-03T02:52:58.885Z,44.95
2018-03-03T02:55:28.313Z,48.67
2018-03-03T02:57:57.712Z,53.20
2018-03-03T03:00:27.138Z,49.92
2018-03-03T03:02:56.560Z,51.20
2018-03-03T03:05:25.984Z,48.13
2018-03-03T03:07:55.418Z,46.70
2018-03-03T03:10:24.925Z,45.17
2018-03-03T03:12:54.418Z,46.58
2018-03-03T03:15:23.841Z,46.13
2018-03-03T03:17:53.274Z,43.97
2018-03-03T03:20:22.683Z,46.70
2018-03-03T03:22:52.123Z,50.47
2018-03-03T03:25:21.513Z,52.13
2018-03-03T03:27:50.928Z,49.05
2018-03-03T03:30:20.330Z,50.50
2018-03-03T03:32:49.772Z,46.63
2018-03-03T03:35:19.205Z,42.30
2018-03-03T03:37:48.609Z,43.55
2018-03-03T03:40:18.104Z,43.28
2018-03-03T03:42:47.490Z,40.40
2018-03-03T03:45:16.950Z,48.60
2018-03-03T03:47:46.388Z,49.40
2018-03-03T03:50:15.811Z,40.40
2018-03-03T03:52:45.215Z,50.72
2018-03-03T03:55:14.637Z,48.50
2018-03-03T03:57:44.054Z,54.35
2018-03-03T04:00:13.473Z,47.75
2018-03-03T04:02:42.906Z,50.45
2018-03-03T04:05:12.458Z,51.03
2018-03-03T04:07:41.852Z,45.88
2018-03-03T04:10:11.562Z,47.53
2018-03-03T04:12:40.998Z,48.85
2018-03-03T04:15:10.689Z,51.95
2018-03-03T04:17:40.826Z,46.28
2018-03-03T04:20:10.481Z,43.28
2018-03-03T04:22:39.963Z,49.15
2018-03-03T04:25:10.313Z,43.65
2018-03-03T04:27:39.863Z,45.47
2018-03-03T04:30:09.698Z,45.28
2018-03-03T04:32:39.125Z,45.42
2018-03-03T04:35:09.030Z,49.67
2018-03-03T04:37:38.490Z,51.80
2018-03-03T04:40:08.132Z,44.78
2018-03-03T04:42:37.558Z,44.40
2018-03-03T04:45:07.811Z,46.60
2018-03-03T04:47:37.259Z,42.72
2018-03-03T04:50:06.982Z,44.25
2018-03-03T04:52:36.452Z,44.17
2018-03-03T04:55:05.905Z,46.33
2018-03-03T04:57:35.321Z,43.30
2018-03-03T05:00:24.562Z,42.08
2018-03-03T05:03:08.896Z,49.17
2018-03-03T05:05:57.998Z,46.10
2018-03-03T05:08:44.245Z,40.20
2018-03-03T05:11:14.420Z,44.55
2018-03-03T05:13:43.868Z,45.10
2018-03-03T05:16:28.099Z,39.38
2018-03-03T05:19:03.372Z,49.88
2018-03-03T05:21:38.485Z,44.78
2018-03-03T05:24:13.727Z,42.03
2018-03-03T05:26:48.955Z,38.80
2018-03-03T05:29:24.212Z,43.03
2018-03-03T05:31:59.535Z,47.92
2018-03-03T05:34:34.799Z,41.13
2018-03-03T05:37:10.051Z,45.97
2018-03-03T05:39:59.422Z,40.83
2018-03-03T05:42:48.548Z,43.60
2018-03-03T05:45:23.660Z,42.28
2018-03-03T05:48:07.980Z,42.75
2018-03-03T05:50:39.968Z,43.20
2018-03-03T05:53:15.277Z,46.88
2018-03-03T05:55:50.561Z,46.28
2018-03-03T05:58:37.857Z,43.35
2018-03-03T06:01:22.175Z,46.80
2018-03-03T06:03:57.486Z,44.75
2018-03-03T06:06:32.660Z,40.33
2018-03-03T06:09:03.785Z,42.22
2018-03-03T06:11:33.176Z,36.08
2018-03-03T06:14:02.622Z,49.05
2018-03-03T06:16:32.067Z,42.10
2018-03-03T06:19:01.531Z,46.00
2018-03-03T06:21:30.949Z,46.17
2018-03-03T06:24:00.418Z,46.55
2018-03-03T06:26:29.812Z,42.10
2018-03-03T06:28:59.228Z,42.03
2018-03-03T06:31:28.644Z,39.17
2018-03-03T06:33:58.093Z,46.22
2018-03-03T06:36:27.507Z,39.45
2018-03-03T06:38:56.948Z,45.12
2018-03-03T06:41:26.374Z,42.28
2018-03-03T06:43:55.812Z,41.67
2018-03-03T06:46:25.219Z,41.78
2018-03-03T06:48:54.639Z,39.13
2018-03-03T06:51:24.078Z,43.78
2018-03-03T06:53:53.467Z,45.00
2018-03-03T06:56:22.877Z,48.58
2018-03-03T06:58:52.277Z,41.05
2018-03-03T07:01:21.709Z,43.17
2018-03-03T07:03:51.102Z,47.50
2018-03-03T07:06:20.518Z,41.75
2018-03-03T07:08:49.942Z,49.15
2018-03-03T07:11:19.373Z,44.80
2018-03-03T07:13:48.834Z,44.05
2018-03-03T07:16:18.203Z,45.12
2018-03-03T07:18:47.616Z,52.50
2018-03-03T07:21:17.809Z,42.55
2018-03-03T07:23:47.213Z,48.85
2018-03-03T07:26:16.611Z,44.03
2018-03-03T07:28:46.024Z,44.63
2018-03-03T07:31:15.463Z,44.20
2018-03-03T07:33:44.882Z,49.72
2018-03-03T07:36:14.274Z,45.83
2018-03-03T07:38:43.701Z,42.90
2018-03-03T07:41:13.111Z,45.70
2018-03-03T07:43:42.557Z,39.40
2018-03-03T07:46:11.978Z,46.63
2018-03-03T07:48:41.367Z,44.45
2018-03-03T07:51:10.780Z,40.70
2018-03-03T07:53:40.174Z,48.13
2018-03-03T07:56:09.600Z,42.10
2018-03-03T07:58:44.944Z,46.75
2018-03-03T08:01:14.346Z,45.20
2018-03-03T08:03:43.756Z,41.28
2018-03-03T08:06:13.190Z,42.67
2018-03-03T08:08:42.616Z,43.05
2018-03-03T08:11:12.027Z,42.47
2018-03-03T08:13:41.416Z,50.12
2018-03-03T08:16:10.860Z,46.65
2018-03-03T08:18:40.316Z,40.78
2018-03-03T08:21:09.727Z,50.10
2018-03-03T08:23:39.183Z,40.95
2018-03-03T08:26:08.597Z,42.42
2018-03-03T08:28:37.997Z,39.50
2018-03-03T08:31:07.433Z,50.92
2018-03-03T08:33:36.841Z,45.92
2018-03-03T08:36:06.265Z,45.58
2018-03-03T08:38:35.641Z,51.65
2018-03-03T08:41:05.082Z,48.50
2018-03-03T08:43:34.488Z,45.88
2018-03-03T08:46:03.918Z,44.75
2018-03-03T08:48:33.319Z,47.08
2018-03-03T08:51:02.716Z,49.53
2018-03-03T08:53:32.242Z,49.35
2018-03-03T08:56:01.616Z,50.33
2018-03-03T08:58:31.097Z,49.15
2018-03-03T09:01:00.514Z,52.40
2018-03-03T09:03:29.976Z,45.55
2018-03-03T09:05:59.419Z,51.35
2018-03-03T09:08:28.842Z,45.33
2018-03-03T09:10:58.246Z,45.83
2018-03-03T09:13:27.661Z,53.35
2018-03-03T09:15:57.091Z,42.13
2018-03-03T09:18:26.494Z,53.22
2018-03-03T09:20:55.948Z,44.10
2018-03-03T09:23:25.406Z,46.50
2018-03-03T09:25:54.797Z,44.42
2018-03-03T09:28:24.213Z,53.95
2018-03-03T09:30:53.600Z,55.60
2018-03-03T09:33:23.046Z,51.03
2018-03-03T09:35:52.551Z,49.25
2018-03-03T09:38:21.972Z,47.95
2018-03-03T09:40:51.361Z,47.17
2018-03-03T09:43:20.807Z,48.30
2018-03-03T09:45:50.232Z,51.53
2018-03-03T09:48:19.661Z,52.75
2018-03-03T09:50:49.078Z,46.78
2018-03-03T09:53:18.506Z,53.65
2018-03-03T09:55:47.898Z,41.53
2018-03-03T09:58:17.328Z,48.80
2018-03-03T10:00:46.729Z,48.00
2018-03-03T10:03:16.152Z,53.83
2018-03-03T10:05:45.579Z,50.83
2018-03-03T10:08:14.985Z,50.55
2018-03-03T10:10:44.412Z,52.25
2018-03-03T10:13:13.809Z,51.90
2018-03-03T10:15:43.246Z,49.50
2018-03-03T10:18:12.642Z,45.47
2018-03-03T10:20:42.062Z,48.10
2018-03-03T10:23:11.469Z,47.83
2018-03-03T10:25:40.904Z,47.20
2018-03-03T10:28:10.295Z,53.45
2018-03-03T10:30:39.714Z,41.92
2018-03-03T10:33:09.201Z,54.95
2018-03-03T10:35:38.601Z,52.30
2018-03-03T10:38:08.061Z,55.80
2018-03-03T10:40:37.492Z,47.30
2018-03-03T10:43:06.926Z,47.30
2018-03-03T10:45:36.325Z,51.95
2018-03-03T10:48:05.745Z,49.13
2018-03-03T10:50:35.245Z,43.72
2018-03-03T10:53:04.664Z,51.90
2018-03-03T10:55:34.097Z,49.85
2018-03-03T10:58:03.484Z,47.35
2018-03-03T11:00:32.923Z,50.33
2018-03-03T11:03:02.321Z,44.15
2018-03-03T11:05:31.741Z,53.78
2018-03-03T11:08:01.195Z,53.95
2018-03-03T11:10:30.616Z,52.45
2018-03-03T11:13:00.042Z,47.70
2018-03-03T11:15:29.473Z,49.83
2018-03-03T11:17:58.862Z,54.20
2018-03-03T11:20:28.929Z,60.72
2018-03-03T11:22:58.323Z,55.42
2018-03-03T11:25:27.757Z,52.88
2018-03-03T11:27:57.168Z,48.17
2018-03-03T11:30:26.632Z,48.72
2018-03-03T11:32:56.058Z,54.88
2018-03-03T11:35:25.514Z,59.60
2018-03-03T11:37:54.895Z,54.72
2018-03-03T11:40:24.345Z,51.30
2018-03-03T11:42:53.759Z,52.70
2018-03-03T11:45:23.192Z,58.42
2018-03-03T11:47:52.590Z,50.50
2018-03-03T11:50:22.039Z,56.30
2018-03-03T11:52:51.421Z,52.22
2018-03-03T11:55:20.866Z,54.33
2018-03-03T11:57:50.269Z,51.90
2018-03-03T12:00:19.716Z,53.17
2018-03-03T12:02:49.149Z,57.15
2018-03-03T12:05:18.555Z,51.37
2018-03-03T12:07:47.986Z,56.35
2018-03-03T12:10:17.397Z,54.58
2018-03-03T12:12:46.843Z,55.53
2018-03-03T12:15:16.268Z,56.95
2018-03-03T12:17:45.662Z,45.75
2018-03-03T12:20:15.092Z,46.37
2018-03-03T12:22:44.551Z,54.35
2018-03-03T12:25:13.945Z,52.33
2018-03-03T12:27:43.413Z,56.00
2018-03-03T12:30:12.848Z,54.28
2018-03-03T12:32:42.303Z,54.10
2018-03-03T12:35:12.043Z,59.13
2018-03-03T12:37:41.443Z,57.65
2018-03-03T12:40:11.115Z,53.65
2018-03-03T12:42:40.551Z,49.25
2018-03-03T12:45:10.073Z,50.58
2018-03-03T12:47:39.519Z,50.80
2018-03-03T12:50:09.151Z,52.67
2018-03-03T12:52:38.640Z,57.47
2018-03-03T12:55:08.318Z,54.85
2018-03-03T12:57:37.854Z,52.28
2018-03-03T13:00:07.493Z,54.80
2018-03-03T13:02:36.946Z,61.00
2018-03-03T13:05:06.457Z,58.65
2018-03-03T13:07:35.937Z,56.05
2018-03-03T13:10:05.807Z,53.35
2018-03-03T13:12:35.352Z,52.00
2018-03-03T13:15:04.944Z,54.35
2018-03-03T13:17:34.401Z,50.75
2018-03-03T13:20:04.122Z,50.35
2018-03-03T13:22:33.585Z,52.30
2018-03-03T13:25:03.240Z,44.25
2018-03-03T13:27:32.781Z,43.78
2018-03-03T13:30:02.311Z,49.85
2018-03-03T13:32:31.746Z,48.33
2018-03-03T13:35:01.186Z,50.63
2018-03-03T13:37:30.610Z,51.15
2018-03-03T13:40:00.058Z,51.67
2018-03-03T13:42:29.972Z,47.13
2018-03-03T13:44:59.387Z,53.72
2018-03-03T13:47:28.828Z,49.75
2018-03-03T13:49:58.246Z,56.53
2018-03-03T13:52:27.661Z,48.78
2018-03-03T13:54:57.102Z,54.45
2018-03-03T13:57:26.512Z,51.40
2018-03-03T13:59:55.913Z,45.50
2018-03-03T14:02:25.339Z,53.10
2018-03-03T14:04:54.728Z,48.90
2018-03-03T14:07:24.165Z,57.72
2018-03-03T14:09:53.582Z,48.92
2018-03-03T14:12:23.012Z,48.70
2018-03-03T14:14:52.451Z,50.72
2018-03-03T14:17:21.867Z,46.08
2018-03-03T14:19:51.303Z,50.75
2018-03-03T14:22:20.728Z,47.13
2018-03-03T14:24:50.133Z,44.80
2018-03-03T14:27:19.543Z,47.55
2018-03-03T14:29:48.953Z,41.45
2018-03-03T14:32:18.335Z,46.20
2018-03-03T14:34:47.781Z,42.35
2018-03-03T14:37:17.213Z,46.47
2018-03-03T14:39:46.648Z,49.28
2018-03-03T14:42:16.044Z,53.97
2018-03-03T14:44:45.502Z,43.20
2018-03-03T14:47:14.865Z,40.12
2018-03-03T14:49:44.314Z,45.05
2018-03-03T14:52:13.731Z,42.05
2018-03-03T14:54:43.140Z,58.20
2018-03-03T14:57:12.551Z,52.42
2018-03-03T14:59:41.994Z,50.50
2018-03-03T15:02:11.414Z,48.10
2018-03-03T15:04:40.829Z,45.75
2018-03-03T15:07:10.256Z,44.88
2018-03-03T15:09:39.716Z,44.90
2018-03-03T15:12:09.149Z,50.20
2018-03-03T15:14:38.704Z,46.03
2018-03-03T15:17:08.131Z,48.55
2018-03-03T15:19:37.532Z,42.97
2018-03-03T15:22:06.990Z,42.17
2018-03-03T15:24:36.387Z,38.72
2018-03-03T15:27:05.821Z,47.80
2018-03-03T15:29:35.257Z,44.28
2018-03-03T15:32:04.645Z,44.70
2018-03-03T15:34:34.101Z,46.95
2018-03-03T15:37:03.497Z,44.60
2018-03-03T15:39:32.933Z,49.78
2018-03-03T15:42:02.332Z,42.05
2018-03-03T15:44:31.794Z,50.90
2018-03-03T15:49:35.832Z,43.33
2018-03-03T15:52:05.243Z,42.13
2018-03-03T15:54:34.713Z,41.22
2018-03-03T15:57:04.163Z,46.33
2018-03-03T15:59:33.594Z,41.88
2018-03-03T16:02:03.019Z,44.05
2018-03-03T16:04:32.491Z,38.65
2018-03-03T16:07:01.985Z,41.53
2018-03-03T16:09:31.384Z,42.38
2018-03-03T16:12:00.785Z,44.08
2018-03-03T16:14:30.475Z,47.03
2018-03-03T16:16:59.852Z,43.25
2018-03-03T16:19:29.272Z,44.20
2018-03-03T16:21:58.711Z,41.80
2018-03-03T16:24:28.206Z,41.92
2018-03-03T16:26:57.585Z,40.92
2018-03-03T16:29:27.032Z,40.58
2018-03-03T16:31:56.444Z,40.53
2018-03-03T16:34:25.907Z,36.97
2018-03-03T16:36:55.489Z,36.83
2018-03-03T16:39:24.924Z,41.13
2018-03-03T16:41:54.333Z,39.10
2018-03-03T16:44:23.884Z,41.17
2018-03-03T16:46:53.844Z,35.50
2018-03-03T16:49:23.293Z,36.58
2018-03-03T16:51:52.673Z,37.42
2018-03-03T16:54:22.093Z,36.80
2018-03-03T16:56:51.534Z,42.50
2018-03-03T16:59:20.938Z,41.03
2018-03-03T17:01:50.371Z,38.25
2018-03-03T17:04:19.771Z,36.92
2018-03-03T17:06:49.208Z,40.08
2018-03-03T17:09:18.638Z,39.65
2018-03-03T17:11:48.086Z,42.20
2018-03-03T17:14:17.540Z,36.67
2018-03-03T17:16:46.930Z,36.72
2018-03-03T17:19:16.379Z,34.38
2018-03-03T17:21:45.796Z,35.83
2018-03-03T17:24:15.988Z,35.55
2018-03-03T17:26:45.523Z,35.80
2018-03-03T17:29:14.963Z,35.55
2018-03-03T17:31:44.351Z,33.60
2018-03-03T17:34:13.832Z,35.13
2018-03-03T17:36:43.233Z,34.20
2018-03-03T17:39:12.678Z,32.35
2018-03-03T17:41:42.078Z,35.20
2018-03-03T17:44:11.509Z,29.75
2018-03-03T17:46:40.931Z,30.30
2018-03-03T17:49:10.367Z,34.60
2018-03-03T17:51:39.775Z,32.78
2018-03-03T17:54:09.222Z,46.40
2018-03-03T17:56:38.624Z,65.25
2018-03-03T17:59:08.102Z,48.33
2018-03-03T18:01:37.486Z,54.83
2018-03-03T18:04:06.917Z,36.75
2018-03-03T18:06:36.355Z,34.03
2018-03-03T18:09:05.775Z,33.55
2018-03-03T18:11:35.336Z,44.30
2018-03-03T18:14:04.764Z,44.05
2018-03-03T18:16:34.161Z,42.95
2018-03-03T18:19:03.551Z,38.15
2018-03-03T18:21:32.989Z,42.30
2018-03-03T18:24:08.324Z,40.97
2018-03-03T18:26:37.777Z,38.03
2018-03-03T18:29:07.203Z,39.63
2018-03-03T18:31:36.647Z,36.20
2018-03-03T18:34:06.093Z,37.85
2018-03-03T18:36:35.537Z,41.15
2018-03-03T18:39:05.047Z,33.58
2018-03-03T18:41:34.465Z,28.60
2018-03-03T18:44:03.958Z,34.72
2018-03-03T18:46:33.411Z,33.85
2018-03-03T18:49:02.832Z,28.90
2018-03-03T18:51:32.284Z,31.02
2018-03-03T18:54:01.691Z,29.85
2018-03-03T18:56:31.130Z,31.75
2018-03-03T18:59:00.535Z,30.65
2018-03-03T19:01:29.957Z,30.88
2018-03-03T19:03:59.353Z,33.03
2018-03-03T19:06:28.801Z,36.47
2018-03-03T19:08:58.212Z,31.58
2018-03-03T19:11:27.650Z,35.42
2018-03-03T19:13:57.055Z,34.40
2018-03-03T19:16:26.566Z,34.78
2018-03-03T19:18:56.005Z,32.92
2018-03-03T19:21:25.432Z,37.10
2018-03-03T19:23:55.246Z,29.67
2018-03-03T19:26:24.648Z,31.67
2018-03-03T19:28:54.890Z,33.92
2018-03-03T19:31:24.871Z,30.30
2018-03-03T19:33:54.283Z,30.00
2018-03-03T19:36:23.731Z,29.73
2018-03-03T19:38:53.230Z,31.23
2018-03-03T19:41:22.655Z,32.05
2018-03-03T19:43:52.107Z,35.10
2018-03-03T19:46:21.507Z,36.78
2018-03-03T19:48:50.944Z,34.63
2018-03-03T19:51:20.359Z,35.00
2018-03-03T19:53:49.781Z,35.33
2018-03-03T19:56:19.250Z,34.78
2018-03-03T19:58:48.676Z,40.10
2018-03-03T20:01:18.097Z,32.22
2018-03-03T20:03:47.510Z,32.65
2018-03-03T20:06:16.972Z,32.05
2018-03-03T20:08:46.415Z,34.33
2018-03-03T20:11:15.840Z,26.60
2018-03-03T20:13:45.291Z,31.62
2018-03-03T20:16:14.715Z,35.45
2018-03-03T20:18:44.156Z,35.05
2018-03-03T20:21:13.564Z,33.50
2018-03-03T20:23:43.016Z,33.53
2018-03-03T20:26:12.441Z,35.40
2018-03-03T20:28:41.900Z,31.83
2018-03-03T20:31:11.370Z,28.10
2018-03-03T20:33:40.782Z,35.85
2018-03-03T20:36:10.241Z,32.58
2018-03-03T20:38:39.634Z,30.83
2018-03-03T20:41:09.104Z,31.52
2018-03-03T20:43:38.524Z,37.58
2018-03-03T20:46:07.979Z,37.35
2018-03-03T20:48:37.735Z,39.53
2018-03-03T20:51:07.163Z,32.38
2018-03-03T20:53:36.605Z,30.42
2018-03-03T20:56:06.068Z,31.17
2018-03-03T20:58:35.475Z,33.40
2018-03-03T21:01:04.942Z,35.85
2018-03-03T21:03:34.356Z,37.13
2018-03-03T21:06:03.747Z,34.63
2018-03-03T21:08:33.189Z,34.00
2018-03-03T21:11:02.635Z,33.22
2018-03-03T21:13:32.196Z,36.63
2018-03-03T21:16:01.631Z,31.98
2018-03-03T21:18:31.050Z,36.08
2018-03-03T21:21:00.483Z,30.00
2018-03-03T21:23:29.904Z,36.55
2018-03-03T21:25:59.310Z,31.87
2018-03-03T21:28:28.727Z,33.17
2018-03-03T21:30:58.213Z,32.47
2018-03-03T21:33:27.648Z,33.72
2018-03-03T21:35:57.076Z,38.88
2018-03-03T21:38:26.494Z,36.22
2018-03-03T21:40:55.972Z,33.40
2018-03-03T21:43:25.355Z,35.63
2018-03-03T21:45:54.766Z,38.92
2018-03-03T21:48:24.221Z,36.90
2018-03-03T21:50:53.660Z,35.15
2018-03-03T21:53:23.048Z,36.03
2018-03-03T21:55:52.509Z,35.92
2018-03-03T21:58:21.910Z,36.65
2018-03-03T22:00:51.380Z,35.60
2018-03-03T22:03:20.791Z,37.72
2018-03-03T22:05:50.214Z,31.95
2018-03-03T22:08:19.749Z,33.75
2018-03-03T22:10:49.196Z,32.95
2018-03-03T22:13:18.635Z,43.03
2018-03-03T22:15:48.056Z,39.35
2018-03-03T22:18:17.519Z,33.38
2018-03-03T22:20:47.182Z,41.55
2018-03-03T22:23:16.613Z,37.38
2018-03-03T22:25:46.016Z,31.75
2018-03-03T22:28:15.443Z,34.08
2018-03-03T22:30:44.904Z,39.45
2018-03-03T22:33:14.291Z,37.38
2018-03-03T22:35:43.708Z,32.83
2018-03-03T22:38:13.137Z,35.63
2018-03-03T22:40:42.597Z,35.25
2018-03-03T22:43:12.011Z,40.45
2018-03-03T22:45:41.482Z,38.40
2018-03-03T22:48:10.869Z,34.78
2018-03-03T22:50:40.292Z,40.88
2018-03-03T22:53:09.688Z,38.63
2018-03-03T22:55:39.112Z,40.40
2018-03-03T22:58:08.500Z,39.28
2018-03-03T23:00:37.934Z,36.90
2018-03-03T23:03:07.372Z,43.28
2018-03-03T23:05:36.745Z,38.35
2018-03-03T23:08:06.176Z,41.60
2018-03-03T23:10:35.582Z,40.97
2018-03-03T23:13:05.023Z,37.67
2018-03-03T23:15:34.404Z,46.42
2018-03-03T23:18:03.855Z,41.67
2018-03-03T23:20:33.260Z,41.45
2018-03-03T23:23:02.708Z,42.70
2018-03-03T23:25:32.121Z,38.97
2018-03-03T23:28:01.547Z,44.92
2018-03-03T23:30:30.950Z,51.37
2018-03-03T23:33:00.357Z,46.00
2018-03-03T23:35:29.741Z,39.53
2018-03-03T23:37:59.165Z,49.85
2018-03-03T23:40:29.296Z,41.88
2018-03-03T23:42:58.792Z,47.67
2018-03-03T23:45:28.209Z,46.17
2018-03-03T23:47:57.653Z,46.60
2018-03-03T23:50:27.041Z,44.83
2018-03-03T23:52:56.618Z,50.60
2018-03-03T23:55:26.041Z,54.40
2018-03-03T23:57:55.471Z,53.55
